Flight Track Log - Related Links

Times and Time Zones

All times are in EDT time to prevent confusion due to time zone crossing. See the AWI3755 flight status page for this flight to view local times or setup timezone preferences in your user account.

Time Position Orientation Groundspeed Altitude Reporting Facility
EDT Latitude Longitude Course Direction KTS MPH feet Rate Location/Type
Sun 06:56:46 PM 35.2289 -80.9572 194° South 158 182 1,600  Level Atlanta Center
Sun 06:57:28 PM 35.2608 -80.9789 331° Northwest 204 235 2,600 2,000 Climbing Atlanta Center
Sun 06:59:00 PM 34.9936 -81.0729 224° Southwest  Level Estimated
Sun 06:59:00 PM 35.1473 -81.0395 172° South  Level Estimated
Sun 06:59:31 PM 35.2650 -81.1542 172° South 288 331 7,100  Level Atlanta Center
Sun 07:00:00 PM 34.9177 -81.0393 160° South  Level FlightAware Approximate
Sun 07:00:32 PM 35.2033 -81.1969 210° Southwest 236 272 9,700  Level Atlanta Center
Sun 07:01:00 PM 34.8376 -81.0198 192° South  Level FlightAware Approximate
Sun 07:01:27 PM 35.1406 -81.1889 174° South 251 289 11,500  Level Atlanta Center
Sun 07:02:00 PM 34.7587 -81.0409 194° South  Level FlightAware Approximate
Sun 07:02:28 PM 35.0694 -81.1814 175° South 274 315 12,000  Level Atlanta Center
Sun 07:04:39 PM 34.9031 -81.1561 173° South 309 356 12,000  Level Jacksonville Center
Sun 07:05:39 PM 34.8278 -81.1450 173° South 289 333 12,000  Level Jacksonville Center
Sun 07:06:39 PM 34.7483 -81.1339 173° South 284 327 12,000  Level Jacksonville Center
Sun 07:07:39 PM 34.6606 -81.1181 172° South 284 327 12,000  Level Jacksonville Center
Sun 07:08:39 PM 34.5833 -81.1097 175° South 290 334 12,000  Level Jacksonville Center
Sun 07:09:39 PM 34.5042 -81.1164 184° South 290 334 12,000  Level Jacksonville Center
Sun 07:10:39 PM 34.4317 -81.1631 208° Southwest 290 334 12,000  Level Jacksonville Center
Sun 07:11:39 PM 34.3617 -81.2197 214° Southwest 302 348 12,000  Level Jacksonville Center
Sun 07:12:39 PM 34.2933 -81.2689 211° Southwest 302 348 12,000  Level Jacksonville Center
Sun 07:13:39 PM 34.2253 -81.3228 213° Southwest 297 342 12,000 -450 Level Jacksonville Center
Sun 07:14:39 PM 34.1550 -81.3744 211° Southwest 297 342 11,100 -450 Descending Jacksonville Center
Sun 07:15:39 PM 34.0844 -81.4283 212° Southwest 297 342 11,100 -50 Level Jacksonville Center
Sun 07:16:39 PM 34.0122 -81.4847 213° Southwest 297 342 11,000 -100 Descending Jacksonville Center
Sun 07:18:00 PM 33.9372 -81.5396 211° Southwest  Level FlightAware Approximate
Sun 07:25:00 PM 33.5451 -81.8162 212° Southwest  Level FlightAware Approximate
Sun 07:26:00 PM 33.5000 -81.8641 270° West  Level FlightAware Approximate
Sun 07:27:00 PM 33.4420 -81.8957 203° Southwest  Level FlightAware Approximate
Sun 07:28:00 PM 33.3862 -81.9354 212° Southwest  Level FlightAware Approximate
Sun 07:29:00 PM 33.3667 -81.9500 212° Southwest  Level FlightAware Approximate
Sun 07:30:00 PM 33.3699 -81.9645 212° Southwest  Level Estimated

Login

Don't have an account? Register now (free) for customized features, flight alerts, and more!